sensor_id;sensor_type;location;lat;lon;timestamp;P1;durP1;ratioP1;P2;durP2;ratioP2
47894;SDS011;33653;52.302;8.134;2022-11-06T00:01:11;4.28;;;3.38;;
47894;SDS011;33653;52.302;8.134;2022-11-06T00:03:41;6.63;;;3.13;;
47894;SDS011;33653;52.302;8.134;2022-11-06T00:06:14;4.85;;;3.28;;
47894;SDS011;33653;52.302;8.134;2022-11-06T00:09:03;4.50;;;3.03;;
47894;SDS011;33653;52.302;8.134;2022-11-06T00:11:34;5.38;;;3.35;;
47894;SDS011;33653;52.302;8.134;2022-11-06T00:14:02;5.85;;;3.22;;
47894;SDS011;33653;52.302;8.134;2022-11-06T00:16:30;4.05;;;3.22;;
47894;SDS011;33653;52.302;8.134;2022-11-06T00:19:00;5.28;;;3.33;;
47894;SDS011;33653;52.302;8.134;2022-11-06T00:21:30;6.53;;;3.30;;
47894;SDS011;33653;52.302;8.134;2022-11-06T00:23:58;6.97;;;3.58;;
47894;SDS011;33653;52.302;8.134;2022-11-06T00:26:29;5.57;;;3.60;;
47894;SDS011;33653;52.302;8.134;2022-11-06T00:28:59;7.05;;;3.55;;
47894;SDS011;33653;52.302;8.134;2022-11-06T00:31:28;7.30;;;3.70;;
47894;SDS011;33653;52.302;8.134;2022-11-06T00:34:04;3.88;;;3.03;;
47894;SDS011;33653;52.302;8.134;2022-11-06T00:36:35;5.50;;;3.38;;
47894;SDS011;33653;52.302;8.134;2022-11-06T00:39:03;6.63;;;2.85;;
47894;SDS011;33653;52.302;8.134;2022-11-06T00:41:31;6.25;;;3.42;;
47894;SDS011;33653;52.302;8.134;2022-11-06T00:43:59;4.80;;;3.55;;
47894;SDS011;33653;52.302;8.134;2022-11-06T00:46:28;4.20;;;2.95;;
47894;SDS011;33653;52.302;8.134;2022-11-06T00:48:56;4.85;;;3.30;;
47894;SDS011;33653;52.302;8.134;2022-11-06T00:51:25;3.40;;;2.85;;
47894;SDS011;33653;52.302;8.134;2022-11-06T00:53:59;4.25;;;2.78;;
47894;SDS011;33653;52.302;8.134;2022-11-06T00:56:29;6.00;;;3.00;;
47894;SDS011;33653;52.302;8.134;2022-11-06T00:58:59;4.10;;;3.22;;
47894;SDS011;33653;52.302;8.134;2022-11-06T01:01:41;4.90;;;2.90;;
47894;SDS011;33653;52.302;8.134;2022-11-06T01:04:11;4.47;;;3.15;;
47894;SDS011;33653;52.302;8.134;2022-11-06T01:06:46;2.58;;;2.33;;
47894;SDS011;33653;52.302;8.134;2022-11-06T01:09:17;4.13;;;2.80;;
47894;SDS011;33653;52.302;8.134;2022-11-06T01:11:48;4.05;;;2.92;;
47894;SDS011;33653;52.302;8.134;2022-11-06T01:14:40;8.07;;;3.63;;
47894;SDS011;33653;52.302;8.134;2022-11-06T01:17:12;5.70;;;3.50;;
47894;SDS011;33653;52.302;8.134;2022-11-06T01:19:40;8.38;;;3.22;;
47894;SDS011;33653;52.302;8.134;2022-11-06T01:22:08;4.18;;;2.75;;
47894;SDS011;33653;52.302;8.134;2022-11-06T01:24:36;4.38;;;2.97;;
47894;SDS011;33653;52.302;8.134;2022-11-06T01:27:04;5.78;;;3.75;;
47894;SDS011;33653;52.302;8.134;2022-11-06T01:29:52;3.40;;;3.10;;
47894;SDS011;33653;52.302;8.134;2022-11-06T01:32:23;4.57;;;3.10;;
47894;SDS011;33653;52.302;8.134;2022-11-06T01:34:51;3.00;;;2.45;;
47894;SDS011;33653;52.302;8.134;2022-11-06T01:37:19;4.70;;;3.35;;
47894;SDS011;33653;52.302;8.134;2022-11-06T01:39:47;2.88;;;2.60;;
47894;SDS011;33653;52.302;8.134;2022-11-06T01:42:19;4.75;;;2.80;;
47894;SDS011;33653;52.302;8.134;2022-11-06T01:47:53;7.65;;;3.00;;
47894;SDS011;33653;52.302;8.134;2022-11-06T01:50:22;2.85;;;2.40;;
47894;SDS011;33653;52.302;8.134;2022-11-06T01:52:53;2.90;;;2.40;;
47894;SDS011;33653;52.302;8.134;2022-11-06T01:55:25;4.93;;;2.83;;
47894;SDS011;33653;52.302;8.134;2022-11-06T01:58:06;6.15;;;2.53;;
47894;SDS011;33653;52.302;8.134;2022-11-06T02:00:41;4.25;;;2.75;;
47894;SDS011;33653;52.302;8.134;2022-11-06T02:03:14;6.35;;;2.70;;
47894;SDS011;33653;52.302;8.134;2022-11-06T02:05:42;3.58;;;2.80;;
47894;SDS011;33653;52.302;8.134;2022-11-06T02:08:11;4.53;;;3.38;;
47894;SDS011;33653;52.302;8.134;2022-11-06T02:10:42;3.53;;;3.17;;
47894;SDS011;33653;52.302;8.134;2022-11-06T02:13:30;4.45;;;2.78;;
47894;SDS011;33653;52.302;8.134;2022-11-06T02:16:22;4.25;;;3.47;;
47894;SDS011;33653;52.302;8.134;2022-11-06T02:27:28;9.90;;;2.90;;
47894;SDS011;33653;52.302;8.134;2022-11-06T02:35:17;4.05;;;3.00;;
47894;SDS011;33653;52.302;8.134;2022-11-06T02:38:06;4.25;;;3.33;;
47894;SDS011;33653;52.302;8.134;2022-11-06T02:40:45;2.75;;;2.40;;
47894;SDS011;33653;52.302;8.134;2022-11-06T02:43:18;4.38;;;3.22;;
47894;SDS011;33653;52.302;8.134;2022-11-06T02:45:54;3.63;;;3.08;;
47894;SDS011;33653;52.302;8.134;2022-11-06T02:48:29;4.72;;;3.22;;
47894;SDS011;33653;52.302;8.134;2022-11-06T02:51:04;2.85;;;2.50;;
47894;SDS011;33653;52.302;8.134;2022-11-06T02:53:32;5.45;;;2.35;;
47894;SDS011;33653;52.302;8.134;2022-11-06T02:56:05;5.72;;;2.67;;
47894;SDS011;33653;52.302;8.134;2022-11-06T02:58:40;9.32;;;3.20;;
47894;SDS011;33653;52.302;8.134;2022-11-06T03:01:36;6.13;;;2.72;;
47894;SDS011;33653;52.302;8.134;2022-11-06T03:04:19;2.80;;;2.60;;
47894;SDS011;33653;52.302;8.134;2022-11-06T03:07:02;7.95;;;2.63;;
47894;SDS011;33653;52.302;8.134;2022-11-06T03:09:37;2.70;;;2.15;;
47894;SDS011;33653;52.302;8.134;2022-11-06T03:12:19;6.22;;;2.92;;
47894;SDS011;33653;52.302;8.134;2022-11-06T03:17:44;5.63;;;2.83;;
47894;SDS011;33653;52.302;8.134;2022-11-06T03:20:44;7.32;;;2.67;;
47894;SDS011;33653;52.302;8.134;2022-11-06T03:23:44;6.47;;;2.75;;
47894;SDS011;33653;52.302;8.134;2022-11-06T03:26:20;6.78;;;2.65;;
47894;SDS011;33653;52.302;8.134;2022-11-06T03:29:00;2.83;;;2.25;;
47894;SDS011;33653;52.302;8.134;2022-11-06T03:31:46;4.63;;;2.47;;
47894;SDS011;33653;52.302;8.134;2022-11-06T03:34:54;7.75;;;2.78;;
47894;SDS011;33653;52.302;8.134;2022-11-06T03:37:24;4.80;;;2.80;;
47894;SDS011;33653;52.302;8.134;2022-11-06T03:39:58;4.97;;;2.60;;
47894;SDS011;33653;52.302;8.134;2022-11-06T03:42:30;6.97;;;2.50;;
47894;SDS011;33653;52.302;8.134;2022-11-06T03:45:02;6.55;;;2.58;;
47894;SDS011;33653;52.302;8.134;2022-11-06T03:47:39;3.95;;;2.22;;
47894;SDS011;33653;52.302;8.134;2022-11-06T03:52:57;3.88;;;2.67;;
47894;SDS011;33653;52.302;8.134;2022-11-06T03:55:42;3.42;;;2.40;;
47894;SDS011;33653;52.302;8.134;2022-11-06T03:58:17;5.32;;;2.63;;
47894;SDS011;33653;52.302;8.134;2022-11-06T04:00:49;3.95;;;2.33;;
47894;SDS011;33653;52.302;8.134;2022-11-06T04:03:27;2.25;;;2.05;;
47894;SDS011;33653;52.302;8.134;2022-11-06T04:08:35;3.22;;;2.33;;
47894;SDS011;33653;52.302;8.134;2022-11-06T04:11:24;4.00;;;2.33;;
47894;SDS011;33653;52.302;8.134;2022-11-06T04:14:13;2.47;;;2.22;;
47894;SDS011;33653;52.302;8.134;2022-11-06T04:16:42;3.80;;;2.78;;
47894;SDS011;33653;52.302;8.134;2022-11-06T04:19:20;2.63;;;2.35;;
47894;SDS011;33653;52.302;8.134;2022-11-06T04:21:55;4.03;;;2.20;;
47894;SDS011;33653;52.302;8.134;2022-11-06T04:31:32;2.70;;;2.08;;
47894;SDS011;33653;52.302;8.134;2022-11-06T04:34:54;4.15;;;2.03;;
47894;SDS011;33653;52.302;8.134;2022-11-06T04:37:55;4.72;;;2.22;;
47894;SDS011;33653;52.302;8.134;2022-11-06T04:43:20;4.80;;;2.70;;
47894;SDS011;33653;52.302;8.134;2022-11-06T04:46:20;2.65;;;1.90;;
47894;SDS011;33653;52.302;8.134;2022-11-06T04:48:53;6.05;;;2.13;;
47894;SDS011;33653;52.302;8.134;2022-11-06T04:51:23;2.53;;;2.30;;
47894;SDS011;33653;52.302;8.134;2022-11-06T04:53:56;2.95;;;1.90;;
47894;SDS011;33653;52.302;8.134;2022-11-06T04:56:31;4.10;;;2.30;;
47894;SDS011;33653;52.302;8.134;2022-11-06T04:59:04;3.40;;;2.03;;
47894;SDS011;33653;52.302;8.134;2022-11-06T05:01:34;4.63;;;2.00;;
47894;SDS011;33653;52.302;8.134;2022-11-06T05:04:02;9.32;;;2.83;;
47894;SDS011;33653;52.302;8.134;2022-11-06T05:06:30;4.60;;;2.38;;
47894;SDS011;33653;52.302;8.134;2022-11-06T05:08:58;3.20;;;2.03;;
47894;SDS011;33653;52.302;8.134;2022-11-06T05:11:27;2.33;;;2.13;;
47894;SDS011;33653;52.302;8.134;2022-11-06T05:13:54;4.80;;;2.28;;
47894;SDS011;33653;52.302;8.134;2022-11-06T05:16:22;4.93;;;2.45;;
47894;SDS011;33653;52.302;8.134;2022-11-06T05:18:50;5.15;;;2.63;;
47894;SDS011;33653;52.302;8.134;2022-11-06T05:21:18;2.00;;;1.80;;
47894;SDS011;33653;52.302;8.134;2022-11-06T05:24:05;2.55;;;1.77;;
47894;SDS011;33653;52.302;8.134;2022-11-06T05:26:40;5.50;;;2.45;;
47894;SDS011;33653;52.302;8.134;2022-11-06T05:29:09;3.10;;;1.80;;
47894;SDS011;33653;52.302;8.134;2022-11-06T05:31:38;2.63;;;2.20;;
47894;SDS011;33653;52.302;8.134;2022-11-06T05:34:06;4.57;;;1.88;;
47894;SDS011;33653;52.302;8.134;2022-11-06T05:36:34;1.92;;;1.73;;
47894;SDS011;33653;52.302;8.134;2022-11-06T05:39:02;2.83;;;2.03;;
47894;SDS011;33653;52.302;8.134;2022-11-06T05:41:29;2.40;;;2.03;;
47894;SDS011;33653;52.302;8.134;2022-11-06T05:43:57;3.40;;;2.40;;
47894;SDS011;33653;52.302;8.134;2022-11-06T05:46:25;2.92;;;2.20;;
47894;SDS011;33653;52.302;8.134;2022-11-06T05:49:13;5.18;;;2.00;;
47894;SDS011;33653;52.302;8.134;2022-11-06T05:51:41;2.15;;;1.90;;
47894;SDS011;33653;52.302;8.134;2022-11-06T05:54:09;4.07;;;1.92;;
47894;SDS011;33653;52.302;8.134;2022-11-06T05:56:37;2.33;;;1.83;;
47894;SDS011;33653;52.302;8.134;2022-11-06T05:59:05;2.15;;;1.95;;
47894;SDS011;33653;52.302;8.134;2022-11-06T06:01:35;2.90;;;2.00;;
47894;SDS011;33653;52.302;8.134;2022-11-06T06:04:02;5.85;;;1.92;;
47894;SDS011;33653;52.302;8.134;2022-11-06T06:06:30;2.60;;;1.63;;
47894;SDS011;33653;52.302;8.134;2022-11-06T06:08:59;2.28;;;2.08;;
47894;SDS011;33653;52.302;8.134;2022-11-06T06:11:26;1.85;;;1.67;;
47894;SDS011;33653;52.302;8.134;2022-11-06T06:13:54;2.17;;;1.98;;
47894;SDS011;33653;52.302;8.134;2022-11-06T06:16:22;2.10;;;1.77;;
47894;SDS011;33653;52.302;8.134;2022-11-06T06:18:53;2.03;;;1.55;;
47894;SDS011;33653;52.302;8.134;2022-11-06T06:21:21;4.20;;;2.00;;
47894;SDS011;33653;52.302;8.134;2022-11-06T06:23:49;2.67;;;2.03;;
47894;SDS011;33653;52.302;8.134;2022-11-06T06:26:17;7.95;;;2.08;;
47894;SDS011;33653;52.302;8.134;2022-11-06T06:28:48;2.08;;;1.48;;
47894;SDS011;33653;52.302;8.134;2022-11-06T06:31:16;5.18;;;1.90;;
47894;SDS011;33653;52.302;8.134;2022-11-06T06:33:44;3.25;;;1.80;;
47894;SDS011;33653;52.302;8.134;2022-11-06T06:36:12;2.67;;;1.63;;
47894;SDS011;33653;52.302;8.134;2022-11-06T06:38:39;1.80;;;1.67;;
47894;SDS011;33653;52.302;8.134;2022-11-06T06:41:07;3.40;;;1.70;;
47894;SDS011;33653;52.302;8.134;2022-11-06T06:43:36;7.65;;;2.20;;
47894;SDS011;33653;52.302;8.134;2022-11-06T06:46:04;1.63;;;1.52;;
47894;SDS011;33653;52.302;8.134;2022-11-06T06:48:33;2.85;;;1.63;;
47894;SDS011;33653;52.302;8.134;2022-11-06T06:51:01;3.83;;;1.85;;
47894;SDS011;33653;52.302;8.134;2022-11-06T06:53:29;2.38;;;1.63;;
47894;SDS011;33653;52.302;8.134;2022-11-06T06:55:57;4.88;;;1.92;;
47894;SDS011;33653;52.302;8.134;2022-11-06T06:58:30;2.25;;;2.05;;
47894;SDS011;33653;52.302;8.134;2022-11-06T07:01:01;2.60;;;1.88;;
47894;SDS011;33653;52.302;8.134;2022-11-06T07:03:31;1.92;;;1.63;;
47894;SDS011;33653;52.302;8.134;2022-11-06T07:05:59;4.32;;;1.55;;
47894;SDS011;33653;52.302;8.134;2022-11-06T07:11:21;3.00;;;1.98;;
47894;SDS011;33653;52.302;8.134;2022-11-06T07:13:49;2.30;;;2.10;;
47894;SDS011;33653;52.302;8.134;2022-11-06T07:16:17;2.75;;;1.80;;
47894;SDS011;33653;52.302;8.134;2022-11-06T07:18:47;3.00;;;2.03;;
47894;SDS011;33653;52.302;8.134;2022-11-06T07:21:14;2.83;;;1.85;;
47894;SDS011;33653;52.302;8.134;2022-11-06T07:23:42;3.78;;;2.03;;
47894;SDS011;33653;52.302;8.134;2022-11-06T07:26:12;2.83;;;2.00;;
47894;SDS011;33653;52.302;8.134;2022-11-06T07:28:39;3.53;;;1.83;;
47894;SDS011;33653;52.302;8.134;2022-11-06T07:31:08;7.95;;;1.90;;
47894;SDS011;33653;52.302;8.134;2022-11-06T07:33:38;3.83;;;1.85;;
47894;SDS011;33653;52.302;8.134;2022-11-06T07:36:07;6.25;;;2.00;;
47894;SDS011;33653;52.302;8.134;2022-11-06T07:38:38;9.55;;;2.13;;
47894;SDS011;33653;52.302;8.134;2022-11-06T07:41:09;4.32;;;1.80;;
47894;SDS011;33653;52.302;8.134;2022-11-06T07:43:47;1.73;;;1.63;;
47894;SDS011;33653;52.302;8.134;2022-11-06T07:46:15;4.18;;;2.35;;
47894;SDS011;33653;52.302;8.134;2022-11-06T07:48:43;6.15;;;2.03;;
47894;SDS011;33653;52.302;8.134;2022-11-06T07:51:11;3.38;;;1.95;;
47894;SDS011;33653;52.302;8.134;2022-11-06T07:53:39;4.82;;;2.10;;
47894;SDS011;33653;52.302;8.134;2022-11-06T07:56:07;2.33;;;1.73;;
47894;SDS011;33653;52.302;8.134;2022-11-06T07:58:35;5.05;;;2.10;;
47894;SDS011;33653;52.302;8.134;2022-11-06T08:01:03;2.03;;;1.83;;
47894;SDS011;33653;52.302;8.134;2022-11-06T08:03:42;1.88;;;1.77;;
47894;SDS011;33653;52.302;8.134;2022-11-06T08:06:10;1.65;;;1.55;;
47894;SDS011;33653;52.302;8.134;2022-11-06T08:08:38;6.03;;;2.20;;
47894;SDS011;33653;52.302;8.134;2022-11-06T08:11:07;1.88;;;1.50;;
47894;SDS011;33653;52.302;8.134;2022-11-06T08:13:38;4.20;;;1.90;;
47894;SDS011;33653;52.302;8.134;2022-11-06T08:16:06;3.58;;;1.75;;
47894;SDS011;33653;52.302;8.134;2022-11-06T08:18:36;2.05;;;1.42;;
47894;SDS011;33653;52.302;8.134;2022-11-06T08:21:05;1.67;;;1.40;;
47894;SDS011;33653;52.302;8.134;2022-11-06T08:23:34;5.82;;;1.90;;
47894;SDS011;33653;52.302;8.134;2022-11-06T08:26:05;5.00;;;2.00;;
47894;SDS011;33653;52.302;8.134;2022-11-06T08:28:39;3.40;;;1.58;;
47894;SDS011;33653;52.302;8.134;2022-11-06T08:31:09;1.67;;;1.45;;
47894;SDS011;33653;52.302;8.134;2022-11-06T08:33:37;2.53;;;1.60;;
47894;SDS011;33653;52.302;8.134;2022-11-06T08:36:06;2.08;;;1.45;;
47894;SDS011;33653;52.302;8.134;2022-11-06T08:38:35;2.50;;;1.60;;
47894;SDS011;33653;52.302;8.134;2022-11-06T08:43:56;1.60;;;1.50;;
47894;SDS011;33653;52.302;8.134;2022-11-06T08:55:04;3.70;;;1.40;;
47894;SDS011;33653;52.302;8.134;2022-11-06T08:57:32;2.15;;;1.65;;
47894;SDS011;33653;52.302;8.134;2022-11-06T09:00:00;2.20;;;1.77;;
47894;SDS011;33653;52.302;8.134;2022-11-06T09:02:29;3.78;;;1.90;;
47894;SDS011;33653;52.302;8.134;2022-11-06T09:05:00;1.25;;;1.20;;
47894;SDS011;33653;52.302;8.134;2022-11-06T09:10:20;3.78;;;1.45;;
47894;SDS011;33653;52.302;8.134;2022-11-06T09:12:47;2.45;;;1.33;;
47894;SDS011;33653;52.302;8.134;2022-11-06T09:15:15;8.02;;;1.83;;
47894;SDS011;33653;52.302;8.134;2022-11-06T09:17:44;1.70;;;1.60;;
47894;SDS011;33653;52.302;8.134;2022-11-06T09:20:14;2.83;;;1.45;;
47894;SDS011;33653;52.302;8.134;2022-11-06T09:22:45;4.43;;;1.65;;
47894;SDS011;33653;52.302;8.134;2022-11-06T09:25:13;1.70;;;1.55;;
47894;SDS011;33653;52.302;8.134;2022-11-06T09:27:45;4.53;;;2.00;;
47894;SDS011;33653;52.302;8.134;2022-11-06T09:30:23;2.13;;;1.25;;
47894;SDS011;33653;52.302;8.134;2022-11-06T09:32:54;1.85;;;1.38;;
47894;SDS011;33653;52.302;8.134;2022-11-06T09:38:31;1.90;;;1.73;;
47894;SDS011;33653;52.302;8.134;2022-11-06T09:41:00;1.55;;;1.45;;
47894;SDS011;33653;52.302;8.134;2022-11-06T09:46:39;4.47;;;1.58;;
47894;SDS011;33653;52.302;8.134;2022-11-06T09:49:31;2.17;;;1.30;;
47894;SDS011;33653;52.302;8.134;2022-11-06T09:52:12;1.40;;;1.30;;
47894;SDS011;33653;52.302;8.134;2022-11-06T09:55:21;3.65;;;1.33;;
47894;SDS011;33653;52.302;8.134;2022-11-06T10:00:55;3.63;;;1.42;;
47894;SDS011;33653;52.302;8.134;2022-11-06T10:17:49;1.45;;;1.35;;
47894;SDS011;33653;52.302;8.134;2022-11-06T10:20:46;1.85;;;1.10;;
47894;SDS011;33653;52.302;8.134;2022-11-06T10:41:09;3.13;;;1.27;;
47894;SDS011;33653;52.302;8.134;2022-11-06T10:43:56;3.20;;;1.50;;
47894;SDS011;33653;52.302;8.134;2022-11-06T10:46:37;3.67;;;1.45;;
47894;SDS011;33653;52.302;8.134;2022-11-06T10:49:12;1.70;;;1.10;;
47894;SDS011;33653;52.302;8.134;2022-11-06T11:00:14;3.58;;;1.25;;
47894;SDS011;33653;52.302;8.134;2022-11-06T11:02:47;4.85;;;1.83;;
47894;SDS011;33653;52.302;8.134;2022-11-06T11:05:21;3.20;;;1.23;;
47894;SDS011;33653;52.302;8.134;2022-11-06T11:07:51;3.88;;;1.20;;
47894;SDS011;33653;52.302;8.134;2022-11-06T11:13:47;4.90;;;1.45;;
47894;SDS011;33653;52.302;8.134;2022-11-06T11:16:28;1.42;;;1.23;;
47894;SDS011;33653;52.302;8.134;2022-11-06T11:19:21;2.35;;;1.77;;
47894;SDS011;33653;52.302;8.134;2022-11-06T11:21:57;26.67;;;10.68;;
47894;SDS011;33653;52.302;8.134;2022-11-06T11:24:27;14.30;;;6.38;;
47894;SDS011;33653;52.302;8.134;2022-11-06T11:27:02;9.23;;;7.32;;
47894;SDS011;33653;52.302;8.134;2022-11-06T11:29:33;31.45;;;17.80;;
47894;SDS011;33653;52.302;8.134;2022-11-06T11:32:14;8.82;;;4.65;;
47894;SDS011;33653;52.302;8.134;2022-11-06T11:37:31;5.57;;;2.40;;
47894;SDS011;33653;52.302;8.134;2022-11-06T11:40:27;13.73;;;2.03;;
47894;SDS011;33653;52.302;8.134;2022-11-06T11:48:55;4.88;;;3.08;;
47894;SDS011;33653;52.302;8.134;2022-11-06T11:59:41;5.82;;;2.20;;
47894;SDS011;33653;52.302;8.134;2022-11-06T12:02:20;7.55;;;3.75;;
47894;SDS011;33653;52.302;8.134;2022-11-06T12:05:23;5.07;;;3.55;;
47894;SDS011;33653;52.302;8.134;2022-11-06T12:08:24;4.20;;;1.67;;
47894;SDS011;33653;52.302;8.134;2022-11-06T12:10:52;5.88;;;2.08;;
47894;SDS011;33653;52.302;8.134;2022-11-06T12:13:30;2.17;;;1.88;;
47894;SDS011;33653;52.302;8.134;2022-11-06T12:16:02;6.20;;;5.20;;
47894;SDS011;33653;52.302;8.134;2022-11-06T12:18:47;8.57;;;5.93;;
47894;SDS011;33653;52.302;8.134;2022-11-06T12:21:32;12.50;;;8.07;;
47894;SDS011;33653;52.302;8.134;2022-11-06T12:29:16;7.60;;;3.83;;
47894;SDS011;33653;52.302;8.134;2022-11-06T12:35:23;3.10;;;1.88;;
47894;SDS011;33653;52.302;8.134;2022-11-06T12:41:11;4.05;;;2.33;;
47894;SDS011;33653;52.302;8.134;2022-11-06T12:43:54;6.03;;;1.27;;
47894;SDS011;33653;52.302;8.134;2022-11-06T12:49:45;2.40;;;1.63;;
47894;SDS011;33653;52.302;8.134;2022-11-06T12:56:21;1.60;;;1.15;;
47894;SDS011;33653;52.302;8.134;2022-11-06T13:02:16;3.47;;;2.00;;
47894;SDS011;33653;52.302;8.134;2022-11-06T13:05:13;0.80;;;0.80;;
47894;SDS011;33653;52.302;8.134;2022-11-06T13:08:30;1.00;;;1.00;;
47894;SDS011;33653;52.302;8.134;2022-11-06T13:11:29;1.38;;;1.13;;
47894;SDS011;33653;52.302;8.134;2022-11-06T13:14:37;3.05;;;1.20;;
47894;SDS011;33653;52.302;8.134;2022-11-06T13:17:17;2.35;;;0.90;;
47894;SDS011;33653;52.302;8.134;2022-11-06T13:22:40;1.10;;;1.00;;
47894;SDS011;33653;52.302;8.134;2022-11-06T13:31:04;2.13;;;1.35;;
47894;SDS011;33653;52.302;8.134;2022-11-06T13:36:20;1.38;;;1.10;;
47894;SDS011;33653;52.302;8.134;2022-11-06T13:38:53;1.98;;;1.15;;
47894;SDS011;33653;52.302;8.134;2022-11-06T13:41:27;0.90;;;0.90;;
47894;SDS011;33653;52.302;8.134;2022-11-06T13:44:04;1.80;;;1.02;;
47894;SDS011;33653;52.302;8.134;2022-11-06T13:57:55;3.15;;;1.15;;
47894;SDS011;33653;52.302;8.134;2022-11-06T14:04:39;2.38;;;1.45;;
47894;SDS011;33653;52.302;8.134;2022-11-06T14:07:44;2.22;;;1.23;;
47894;SDS011;33653;52.302;8.134;2022-11-06T14:10:23;2.15;;;1.17;;
47894;SDS011;33653;52.302;8.134;2022-11-06T14:13:04;1.25;;;1.05;;
47894;SDS011;33653;52.302;8.134;2022-11-06T14:15:36;3.97;;;1.70;;
47894;SDS011;33653;52.302;8.134;2022-11-06T14:18:12;2.22;;;1.27;;
47894;SDS011;33653;52.302;8.134;2022-11-06T14:20:47;1.92;;;1.27;;
47894;SDS011;33653;52.302;8.134;2022-11-06T14:26:07;3.88;;;1.52;;
47894;SDS011;33653;52.302;8.134;2022-11-06T14:31:56;3.10;;;1.40;;
47894;SDS011;33653;52.302;8.134;2022-11-06T14:34:32;6.80;;;2.33;;
47894;SDS011;33653;52.302;8.134;2022-11-06T14:40:02;2.05;;;1.67;;
47894;SDS011;33653;52.302;8.134;2022-11-06T14:42:40;1.63;;;1.40;;
47894;SDS011;33653;52.302;8.134;2022-11-06T14:49:42;1.25;;;1.10;;
47894;SDS011;33653;52.302;8.134;2022-11-06T14:55:58;2.08;;;1.30;;
47894;SDS011;33653;52.302;8.134;2022-11-06T14:58:53;4.68;;;1.88;;
47894;SDS011;33653;52.302;8.134;2022-11-06T15:04:03;5.93;;;1.95;;
47894;SDS011;33653;52.302;8.134;2022-11-06T15:06:41;5.40;;;1.75;;
47894;SDS011;33653;52.302;8.134;2022-11-06T15:09:12;4.25;;;1.90;;
47894;SDS011;33653;52.302;8.134;2022-11-06T15:16:53;3.65;;;2.13;;
47894;SDS011;33653;52.302;8.134;2022-11-06T15:19:30;2.28;;;1.58;;
47894;SDS011;33653;52.302;8.134;2022-11-06T15:27:57;1.60;;;1.50;;
47894;SDS011;33653;52.302;8.134;2022-11-06T15:34:30;1.13;;;1.05;;
47894;SDS011;33653;52.302;8.134;2022-11-06T15:36:27;2.83;;;1.15;;
47894;SDS011;33653;52.302;8.134;2022-11-06T15:42:11;3.45;;;1.50;;
47894;SDS011;33653;52.302;8.134;2022-11-06T15:44:45;2.50;;;1.95;;
47894;SDS011;33653;52.302;8.134;2022-11-06T15:47:20;3.45;;;1.30;;
47894;SDS011;33653;52.302;8.134;2022-11-06T15:52:41;2.10;;;1.20;;
47894;SDS011;33653;52.302;8.134;2022-11-06T16:01:05;1.48;;;1.27;;
47894;SDS011;33653;52.302;8.134;2022-11-06T16:03:50;1.77;;;1.20;;
47894;SDS011;33653;52.302;8.134;2022-11-06T16:06:19;1.38;;;1.17;;
47894;SDS011;33653;52.302;8.134;2022-11-06T16:08:48;1.83;;;0.95;;
47894;SDS011;33653;52.302;8.134;2022-11-06T16:11:20;2.00;;;1.42;;
47894;SDS011;33653;52.302;8.134;2022-11-06T16:13:50;3.13;;;1.02;;
47894;SDS011;33653;52.302;8.134;2022-11-06T16:19:22;2.30;;;1.08;;
47894;SDS011;33653;52.302;8.134;2022-11-06T16:24:44;1.65;;;1.38;;
47894;SDS011;33653;52.302;8.134;2022-11-06T16:27:31;1.65;;;1.40;;
47894;SDS011;33653;52.302;8.134;2022-11-06T16:30:05;3.22;;;1.55;;
47894;SDS011;33653;52.302;8.134;2022-11-06T16:35:52;1.42;;;1.30;;
47894;SDS011;33653;52.302;8.134;2022-11-06T16:38:41;1.33;;;1.10;;
47894;SDS011;33653;52.302;8.134;2022-11-06T16:41:15;2.30;;;1.10;;
47894;SDS011;33653;52.302;8.134;2022-11-06T16:47:27;5.80;;;1.63;;
47894;SDS011;33653;52.302;8.134;2022-11-06T16:49:56;2.15;;;1.50;;
47894;SDS011;33653;52.302;8.134;2022-11-06T16:52:25;6.57;;;1.88;;
47894;SDS011;33653;52.302;8.134;2022-11-06T16:57:44;3.53;;;1.90;;
47894;SDS011;33653;52.302;8.134;2022-11-06T17:03:01;3.35;;;1.50;;
47894;SDS011;33653;52.302;8.134;2022-11-06T17:05:35;1.45;;;1.35;;
47894;SDS011;33653;52.302;8.134;2022-11-06T17:13:40;3.08;;;1.50;;
47894;SDS011;33653;52.302;8.134;2022-11-06T17:16:12;3.05;;;1.40;;
47894;SDS011;33653;52.302;8.134;2022-11-06T17:18:45;1.42;;;1.33;;
47894;SDS011;33653;52.302;8.134;2022-11-06T17:21:23;1.30;;;1.20;;
47894;SDS011;33653;52.302;8.134;2022-11-06T17:23:51;2.53;;;1.48;;
47894;SDS011;33653;52.302;8.134;2022-11-06T17:26:27;1.20;;;1.10;;
47894;SDS011;33653;52.302;8.134;2022-11-06T17:28:57;1.50;;;1.40;;
47894;SDS011;33653;52.302;8.134;2022-11-06T17:31:26;1.25;;;1.17;;
47894;SDS011;33653;52.302;8.134;2022-11-06T17:33:54;2.33;;;1.02;;
47894;SDS011;33653;52.302;8.134;2022-11-06T17:36:26;3.17;;;1.40;;
47894;SDS011;33653;52.302;8.134;2022-11-06T17:38:56;1.33;;;1.20;;
47894;SDS011;33653;52.302;8.134;2022-11-06T17:41:25;2.00;;;1.48;;
47894;SDS011;33653;52.302;8.134;2022-11-06T17:44:08;1.42;;;1.33;;
47894;SDS011;33653;52.302;8.134;2022-11-06T17:46:46;1.30;;;1.20;;
47894;SDS011;33653;52.302;8.134;2022-11-06T17:49:14;1.73;;;1.52;;
47894;SDS011;33653;52.302;8.134;2022-11-06T17:51:50;1.77;;;1.37;;
47894;SDS011;33653;52.302;8.134;2022-11-06T17:55:02;1.52;;;1.40;;
47894;SDS011;33653;52.302;8.134;2022-11-06T17:57:45;1.27;;;1.25;;
47894;SDS011;33653;52.302;8.134;2022-11-06T18:00:13;2.75;;;1.65;;
47894;SDS011;33653;52.302;8.134;2022-11-06T18:05:28;2.35;;;1.88;;
47894;SDS011;33653;52.302;8.134;2022-11-06T18:07:56;2.85;;;2.20;;
47894;SDS011;33653;52.302;8.134;2022-11-06T18:10:25;5.63;;;1.98;;
47894;SDS011;33653;52.302;8.134;2022-11-06T18:12:56;2.80;;;1.90;;
47894;SDS011;33653;52.302;8.134;2022-11-06T18:15:25;5.05;;;2.33;;
47894;SDS011;33653;52.302;8.134;2022-11-06T18:17:57;1.67;;;1.52;;
47894;SDS011;33653;52.302;8.134;2022-11-06T18:20:25;1.80;;;1.63;;
47894;SDS011;33653;52.302;8.134;2022-11-06T18:22:53;1.52;;;1.42;;
47894;SDS011;33653;52.302;8.134;2022-11-06T18:25:21;4.53;;;1.50;;
47894;SDS011;33653;52.302;8.134;2022-11-06T18:30:42;1.58;;;1.48;;
47894;SDS011;33653;52.302;8.134;2022-11-06T18:33:10;2.05;;;1.50;;
47894;SDS011;33653;52.302;8.134;2022-11-06T18:35:37;3.47;;;2.50;;
47894;SDS011;33653;52.302;8.134;2022-11-06T18:38:05;2.20;;;1.77;;
47894;SDS011;33653;52.302;8.134;2022-11-06T18:40:36;3.30;;;1.90;;
47894;SDS011;33653;52.302;8.134;2022-11-06T18:45:41;2.00;;;1.38;;
47894;SDS011;33653;52.302;8.134;2022-11-06T18:48:09;3.63;;;1.45;;
47894;SDS011;33653;52.302;8.134;2022-11-06T18:50:42;1.63;;;1.50;;
47894;SDS011;33653;52.302;8.134;2022-11-06T18:53:10;1.42;;;1.33;;
47894;SDS011;33653;52.302;8.134;2022-11-06T18:55:43;1.50;;;1.40;;
47894;SDS011;33653;52.302;8.134;2022-11-06T18:58:12;6.85;;;2.22;;
47894;SDS011;33653;52.302;8.134;2022-11-06T19:00:40;2.75;;;1.95;;
47894;SDS011;33653;52.302;8.134;2022-11-06T19:03:08;3.00;;;1.60;;
47894;SDS011;33653;52.302;8.134;2022-11-06T19:05:37;5.47;;;1.88;;
47894;SDS011;33653;52.302;8.134;2022-11-06T19:08:33;2.78;;;1.48;;
47894;SDS011;33653;52.302;8.134;2022-11-06T19:11:01;1.35;;;1.25;;
47894;SDS011;33653;52.302;8.134;2022-11-06T19:13:30;1.77;;;1.67;;
47894;SDS011;33653;52.302;8.134;2022-11-06T19:16:04;1.40;;;1.30;;
47894;SDS011;33653;52.302;8.134;2022-11-06T19:18:36;3.03;;;1.95;;
47894;SDS011;33653;52.302;8.134;2022-11-06T19:21:07;2.17;;;1.98;;
47894;SDS011;33653;52.302;8.134;2022-11-06T19:23:37;2.80;;;1.60;;
47894;SDS011;33653;52.302;8.134;2022-11-06T19:26:08;1.85;;;1.67;;
47894;SDS011;33653;52.302;8.134;2022-11-06T19:28:58;4.63;;;1.77;;
47894;SDS011;33653;52.302;8.134;2022-11-06T19:31:27;1.70;;;1.60;;
47894;SDS011;33653;52.302;8.134;2022-11-06T19:33:56;1.77;;;1.67;;
47894;SDS011;33653;52.302;8.134;2022-11-06T19:36:26;2.10;;;1.85;;
47894;SDS011;33653;52.302;8.134;2022-11-06T19:38:54;2.60;;;2.00;;